Time;durP1;ratioP1;P1;durP2;ratioP2;P2;SDS_P1;SDS_P2;PMS_P1;PMS_P2;Temp;Humidity;BMP_temperature;BMP_pressure;BME280_temperature;BME280_humidity;BME280_pressure;Samples;Min_cycle;Max_cycle;Signal;HPM_P1;HPM_P2
2022/10/19 00:01:56;;;;;;;9.98;7.53;;;15.70;82.70;;;14.52;100.00;96937.75;4983307;28;20145;-68
2022/10/19 00:04:22;;;;;;;8.13;7.28;;;15.80;82.90;;;14.53;100.00;96947.34;4997537;28;20042;-68
2022/10/19 00:06:48;;;;;;;11.35;7.32;;;15.70;82.80;;;14.53;100.00;96934.09;4968694;28;20125;-68
2022/10/19 00:09:16;;;;;;;9.75;7.65;;;15.70;82.80;;;14.55;100.00;96941.84;4998522;28;20069;-68
2022/10/19 00:11:44;;;;;;;8.57;7.63;;;15.80;83.00;;;14.53;100.00;96934.09;4976706;28;20785;-69
2022/10/19 00:14:13;;;;;;;9.88;8.32;;;15.80;83.00;;;14.56;100.00;96938.19;4999619;28;20045;-68
2022/10/19 00:16:39;;;;;;;8.30;7.50;;;15.80;83.10;;;14.56;100.00;96939.00;4950686;28;20034;-68
2022/10/19 00:19:07;;;;;;;8.77;7.55;;;15.80;83.00;;;14.56;100.00;96933.72;4981801;28;20050;-68
2022/10/19 00:21:33;;;;;;;9.85;7.55;;;15.80;83.10;;;14.56;100.00;96933.72;4999564;28;20684;-68
2022/10/19 00:23:59;;;;;;;13.00;7.88;;;15.80;83.10;;;14.55;100.00;96931.25;4983053;28;20038;-68
2022/10/19 00:26:26;;;;;;;9.45;7.63;;;15.80;83.20;;;14.54;100.00;96933.09;5005306;28;20034;-70
2022/10/19 00:28:55;;;;;;;10.07;8.40;;;15.70;83.10;;;14.53;100.00;96930.63;4985987;28;20030;-70
2022/10/19 00:31:21;;;;;;;10.10;8.32;;;15.70;83.10;;;14.51;100.00;96928.19;4986693;28;20041;-71
2022/10/19 00:33:47;;;;;;;8.13;7.25;;;15.70;83.10;;;14.50;100.00;96928.38;4997103;28;20508;-69
2022/10/19 00:36:31;;;;;;;10.38;7.75;;;15.70;82.70;;;14.48;100.00;96931.19;4982660;28;20039;-70
2022/10/19 00:38:57;;;;;;;10.43;7.65;;;15.70;82.80;;;14.44;100.00;96929.94;4979743;28;20129;-70
2022/10/19 00:41:25;;;;;;;10.07;7.18;;;15.60;82.80;;;14.43;100.00;96941.53;5001118;28;20030;-70
2022/10/19 00:44:02;;;;;;;8.02;7.07;;;15.60;82.70;;;14.42;100.00;96937.22;4988242;28;20216;-70
2022/10/19 00:46:30;;;;;;;11.30;7.38;;;15.60;82.70;;;14.39;100.00;96938.44;4999547;28;20037;-70
2022/10/19 00:49:06;;;;;;;10.52;7.80;;;15.60;82.50;;;14.39;100.00;96942.91;5002923;28;20022;-70
2022/10/19 00:51:34;;;;;;;12.75;7.93;;;15.50;82.30;;;14.33;100.00;96941.03;4994620;28;20053;-70
2022/10/19 00:54:00;;;;;;;8.77;7.55;;;15.50;82.50;;;14.31;100.00;96940.41;4988916;28;20037;-71
2022/10/19 00:56:25;;;;;;;8.88;7.85;;;15.50;82.40;;;14.27;100.00;96933.88;4985827;28;20034;-71
2022/10/19 00:58:51;;;;;;;11.38;8.75;;;15.40;82.60;;;14.23;100.00;96927.31;4987708;28;20057;-70
2022/10/19 01:01:19;;;;;;;9.43;8.07;;;15.40;82.60;;;14.20;100.00;96923.22;4995955;28;20041;-70
2022/10/19 01:03:45;;;;;;;9.32;7.85;;;15.40;82.30;;;14.16;100.00;96927.25;4988055;28;20191;-70
2022/10/19 01:06:12;;;;;;;10.48;8.25;;;15.30;82.20;;;14.13;100.00;96921.53;4991448;28;20054;-70
2022/10/19 01:08:38;;;;;;;9.75;7.57;;;15.20;82.40;;;14.07;100.00;96931.88;4969442;28;20112;-71
2022/10/19 01:11:28;;;;;;;10.50;7.53;;;15.20;82.10;;;14.04;100.00;96924.31;5005082;28;20076;-70
2022/10/19 01:14:22;;;;;;;9.32;7.88;;;15.10;82.20;;;13.98;100.00;96914.47;5004639;28;20080;-71
2022/10/19 01:17:10;;;;;;;8.55;7.72;;;15.10;82.40;;;13.91;100.00;96915.44;5002533;28;20430;-70
2022/10/19 01:19:51;;;;;;;11.85;7.68;;;15.00;82.30;;;13.85;100.00;96913.56;4984290;28;20116;-71
2022/10/19 01:22:23;;;;;;;;;;;15.00;82.30;;;13.78;100.00;96918.75;4988380;28;20053;-70
2022/10/19 01:25:20;;;;;;;8.95;7.78;;;15.00;82.40;;;13.71;100.00;96921.34;5002139;28;19921;-71
2022/10/19 01:28:28;;;;;;;11.45;7.85;;;14.80;82.40;;;13.65;100.00;96916.00;4988261;28;20050;-70
2022/10/19 01:31:02;;;;;;;8.70;7.70;;;14.80;82.40;;;13.60;100.00;96910.47;4984705;28;21037;-70
2022/10/19 01:33:58;;;;;;;9.32;8.23;;;14.70;82.40;;;13.58;100.00;96920.38;5000593;28;20034;-71
2022/10/19 01:37:10;;;;;;;10.45;8.18;;;14.70;82.30;;;13.54;100.00;96911.19;4985792;28;20080;-70
2022/10/19 01:40:13;;;;;;;9.57;8.25;;;14.70;82.40;;;13.52;100.00;96907.94;4961132;28;20060;-71
2022/10/19 01:42:45;;;;;;;9.80;7.88;;;14.70;82.60;;;13.46;100.00;96910.31;4984636;28;20025;-70
2022/10/19 01:45:23;;;;;;;8.90;7.97;;;14.60;82.70;;;13.45;100.00;96911.31;4983713;28;20030;-71
2022/10/19 01:48:05;;;;;;;9.57;8.40;;;14.60;82.60;;;13.43;100.00;96910.69;4972676;28;20502;-70
2022/10/19 01:50:57;;;;;;;9.20;8.10;;;14.60;82.60;;;13.40;100.00;96905.78;4992997;28;20063;-70
2022/10/19 01:53:23;;;;;;;12.43;7.50;;;14.60;82.70;;;13.38;100.00;96902.53;4968027;28;20182;-71
2022/10/19 01:55:51;;;;;;;6.68;5.60;;;14.60;82.50;;;13.36;100.00;96907.19;4966309;28;20113;-72
2022/10/19 01:58:20;;;;;;;15.25;5.95;;;14.60;82.50;;;13.36;100.00;96906.34;4972162;28;20038;-70
2022/10/19 02:00:46;;;;;;;6.70;5.45;;;14.60;82.40;;;13.36;100.00;96903.72;4968705;28;20069;-70
2022/10/19 02:03:12;;;;;;;7.05;6.10;;;14.60;82.50;;;13.37;100.00;96906.16;4987121;28;20510;-70
2022/10/19 02:05:37;;;;;;;6.18;5.55;;;14.60;82.50;;;13.35;100.00;96897.63;4985674;28;20034;-71
2022/10/19 02:08:09;;;;;;;6.75;6.05;;;14.60;82.50;;;13.37;100.00;96910.63;4968971;28;20182;-70
2022/10/19 02:10:36;;;;;;;9.63;7.38;;;14.60;82.70;;;13.35;100.00;96902.91;4966161;28;20038;-71
2022/10/19 02:13:02;;;;;;;8.32;7.47;;;14.60;83.00;;;13.36;100.00;96904.53;4981174;28;20038;-71
2022/10/19 02:15:27;;;;;;;9.02;7.78;;;14.60;83.10;;;13.37;100.00;96906.16;4982571;28;20298;-71
2022/10/19 02:17:56;;;;;;;31.95;27.35;;;14.60;83.20;;;13.38;100.00;96912.28;4977192;28;20145;-71
2022/10/19 02:20:22;;;;;;;26.70;21.48;;;14.70;83.60;;;13.41;100.00;96907.44;4970309;28;20528;-70
2022/10/19 02:22:48;;;;;;;14.68;13.18;;;14.70;84.00;;;13.44;100.00;96901.75;4971144;28;20117;-70
2022/10/19 02:25:13;;;;;;;11.40;8.25;;;14.70;83.90;;;13.46;100.00;96905.03;4984568;28;20037;-71
2022/10/19 02:27:42;;;;;;;11.07;9.98;;;14.70;83.50;;;13.48;100.00;96897.72;4963161;28;20138;-72
2022/10/19 02:30:13;;;;;;;19.92;17.60;;;14.80;83.30;;;13.48;100.00;96903.03;4989442;28;20494;-70
2022/10/19 02:32:39;;;;;;;18.15;13.52;;;14.80;83.40;;;13.51;100.00;96901.00;4986151;28;20406;-70
2022/10/19 02:35:05;;;;;;;11.05;8.48;;;14.80;83.40;;;13.52;100.00;96897.34;4982432;28;20034;-70
2022/10/19 02:37:31;;;;;;;10.05;8.02;;;14.80;83.30;;;13.53;100.00;96899.00;4958696;28;20124;-70
2022/10/19 02:39:57;;;;;;;10.43;7.63;;;14.80;83.60;;;13.55;100.00;96891.69;4975404;28;20122;-70
2022/10/19 02:42:49;;;;;;;9.18;7.50;;;14.80;83.50;;;13.57;100.00;96894.97;4979485;28;20065;-70
2022/10/19 02:45:28;;;;;;;10.05;7.43;;;14.90;83.70;;;13.57;100.00;96889.69;4993357;28;20033;-70
2022/10/19 02:47:59;;;;;;;10.73;7.63;;;14.80;83.90;;;13.57;100.00;96887.03;4965481;28;20558;-70
2022/10/19 02:50:25;;;;;;;8.45;7.35;;;14.80;83.80;;;13.57;100.00;96879.09;4983607;28;20030;-70
2022/10/19 02:52:51;;;;;;;9.07;7.32;;;14.90;83.80;;;13.59;100.00;96882.41;4968349;28;20632;-71
2022/10/19 02:55:16;;;;;;;11.85;7.60;;;14.90;83.70;;;13.59;100.00;96887.69;4969237;28;20468;-70
2022/10/19 02:57:42;;;;;;;9.75;8.40;;;14.90;83.70;;;13.61;100.00;96883.03;4971872;28;20306;-70
2022/10/19 03:00:09;;;;;;;14.73;12.32;;;15.00;83.90;;;13.63;100.00;96875.72;4986488;28;20069;-70
2022/10/19 03:02:35;;;;;;;18.13;15.40;;;15.00;83.90;;;13.66;100.00;96883.28;4976281;28;20045;-70
2022/10/19 03:05:00;;;;;;;16.55;12.85;;;15.00;83.80;;;13.69;100.00;96877.59;4986661;28;20030;-69
2022/10/19 03:07:26;;;;;;;13.13;9.55;;;15.10;83.70;;;13.71;100.00;96871.13;4988010;28;20030;-70
2022/10/19 03:09:52;;;;;;;10.88;8.73;;;15.10;83.70;;;13.74;100.00;96880.50;4954932;28;20053;-69
2022/10/19 03:12:18;;;;;;;19.55;17.45;;;15.10;83.70;;;13.75;100.00;96866.25;4991398;28;20113;-69
2022/10/19 03:14:43;;;;;;;17.90;15.52;;;15.10;83.90;;;13.79;100.00;96867.53;4983654;28;20040;-70
2022/10/19 03:17:09;;;;;;;14.35;11.48;;;15.10;83.90;;;13.81;100.00;96870.81;4986817;28;20568;-70
2022/10/19 03:19:35;;;;;;;12.70;8.80;;;15.20;83.70;;;13.82;100.00;96864.53;4983143;28;20539;-70
2022/10/19 03:22:01;;;;;;;9.13;8.23;;;15.20;83.80;;;13.85;100.00;96865.97;4998077;28;20033;-70
2022/10/19 03:24:26;;;;;;;11.70;7.72;;;15.10;83.70;;;13.85;100.00;96858.84;4985955;28;20041;-70
2022/10/19 03:26:52;;;;;;;12.30;10.85;;;15.10;83.80;;;13.86;100.00;96862.31;4989066;28;20030;-69
2022/10/19 03:29:18;;;;;;;15.07;12.82;;;15.20;83.80;;;13.87;100.00;96858.66;4986166;28;20126;-70
2022/10/19 03:31:44;;;;;;;15.02;12.30;;;15.20;83.80;;;13.87;100.00;96863.94;4968986;28;20030;-69
2022/10/19 03:34:09;;;;;;;9.75;7.78;;;15.30;83.90;;;13.88;100.00;96858.47;4986156;28;20180;-70
2022/10/19 03:36:37;;;;;;;10.50;8.38;;;15.20;83.80;;;13.88;100.00;96860.28;4987763;28;20062;-70
2022/10/19 03:39:11;;;;;;;9.82;8.50;;;15.20;83.80;;;13.88;100.00;96855.00;5004709;28;20050;-69
2022/10/19 03:41:37;;;;;;;9.45;7.80;;;15.20;83.80;;;13.88;100.00;96855.00;4969604;28;20413;-70
2022/10/19 03:44:04;;;;;;;8.55;7.28;;;15.20;83.90;;;13.88;100.00;96850.53;4979281;28;20096;-68
2022/10/19 03:46:30;;;;;;;9.43;7.82;;;15.20;83.90;;;13.89;100.00;96854.81;4986836;28;20041;-69
2022/10/19 03:48:55;;;;;;;9.75;8.18;;;15.20;83.90;;;13.88;100.00;96850.53;4968064;28;20058;-69
2022/10/19 03:51:26;;;;;;;9.18;8.05;;;15.20;84.00;;;13.92;100.00;96857.06;4986943;28;20040;-69
2022/10/19 03:54:06;;;;;;;9.30;8.38;;;15.30;84.10;;;13.93;100.00;96847.31;4969108;28;20030;-70
2022/10/19 03:56:32;;;;;;;9.23;8.23;;;15.30;84.10;;;13.92;100.00;96845.66;4981380;28;20037;-69
2022/10/19 03:58:59;;;;;;;9.73;8.55;;;15.30;84.20;;;13.94;100.00;96849.75;4984946;28;20456;-69
2022/10/19 04:01:34;;;;;;;10.93;9.18;;;15.40;84.10;;;13.96;100.00;96852.22;4986508;28;20030;-69
2022/10/19 04:04:02;;;;;;;10.65;8.90;;;15.40;84.10;;;13.96;100.00;96852.22;5007157;28;20347;-69
2022/10/19 04:06:33;;;;;;;9.65;8.55;;;15.40;84.20;;;13.96;100.00;96846.91;4959299;28;20049;-69
2022/10/19 04:08:59;;;;;;;13.15;9.70;;;15.30;84.30;;;13.94;100.00;96854.22;4995910;28;20031;-69
2022/10/19 04:11:27;;;;;;;10.60;9.50;;;15.30;84.20;;;13.95;100.00;96848.75;4989526;28;20076;-70
2022/10/19 04:13:53;;;;;;;11.02;9.75;;;15.30;84.10;;;13.96;100.00;96846.91;4966691;28;20026;-69
2022/10/19 04:16:20;;;;;;;11.77;9.23;;;15.30;84.10;;;13.96;100.00;96846.91;4987812;28;20426;-69
2022/10/19 04:18:46;;;;;;;11.50;10.30;;;15.30;84.10;;;13.95;100.00;96845.28;4973286;28;20436;-69
2022/10/19 04:21:21;;;;;;;13.07;10.00;;;15.30;84.20;;;13.95;100.00;96851.38;4976370;28;20055;-69
2022/10/19 04:23:47;;;;;;;10.93;9.77;;;15.30;84.10;;;13.96;100.00;96852.22;5006973;28;20026;-69
2022/10/19 04:26:13;;;;;;;14.60;10.80;;;15.30;84.20;;;13.95;100.00;96846.09;4990508;28;20049;-68
2022/10/19 04:28:39;;;;;;;17.95;15.82;;;15.40;84.20;;;13.95;100.00;96846.09;4990746;28;20498;-68
2022/10/19 04:31:05;;;;;;;14.45;12.77;;;15.30;84.10;;;13.95;100.00;96842.63;4971823;28;20068;-67
2022/10/19 04:33:31;;;;;;;13.00;10.73;;;15.30;84.10;;;13.95;100.00;96845.28;4971369;28;20038;-69
2022/10/19 04:36:05;;;;;;;12.82;10.75;;;15.30;84.10;;;13.95;100.00;96850.56;4998567;28;20026;-69
2022/10/19 04:38:31;;;;;;;12.27;9.60;;;15.30;84.10;;;13.95;100.00;96845.28;4976875;28;20030;-70
2022/10/19 04:41:11;;;;;;;11.52;10.32;;;15.30;84.10;;;13.95;100.00;96837.34;4983487;28;20497;-71
2022/10/19 04:43:37;;;;;;;13.33;10.07;;;15.30;84.10;;;13.93;100.00;96842.00;4985249;28;20033;-68
2022/10/19 04:46:08;;;;;;;12.10;11.00;;;15.30;84.20;;;13.94;100.00;96841.00;4988257;28;20317;-67
2022/10/19 04:48:34;;;;;;;13.90;10.82;;;15.30;84.10;;;13.95;100.00;96846.09;4976362;28;20036;-66
2022/10/19 04:51:00;;;;;;;11.88;10.55;;;15.30;84.10;;;13.93;100.00;96840.19;4986420;28;20053;-69
2022/10/19 04:53:26;;;;;;;11.40;10.23;;;15.30;84.20;;;13.95;100.00;96835.50;4985764;28;20109;-70
2022/10/19 04:55:52;;;;;;;13.40;11.95;;;15.30;84.10;;;13.94;100.00;96833.06;4993897;28;20133;-69
2022/10/19 04:58:17;;;;;;;16.60;12.40;;;15.30;84.10;;;13.90;100.00;96837.94;4967081;28;20058;-64
2022/10/19 05:00:43;;;;;;;15.05;11.80;;;15.20;84.30;;;13.91;100.00;96834.28;4984162;28;20117;-69
2022/10/19 05:03:09;;;;;;;15.68;12.18;;;15.30;84.30;;;13.91;100.00;96834.28;4987178;28;20117;-70
2022/10/19 05:05:35;;;;;;;12.98;11.68;;;15.30;84.20;;;13.89;100.00;96831.00;4970676;28;20033;-69
2022/10/19 05:08:00;;;;;;;12.75;11.45;;;15.20;84.10;;;13.87;100.00;96837.50;4991536;28;20061;-69
2022/10/19 05:10:26;;;;;;;18.10;12.07;;;15.20;84.00;;;13.87;100.00;96826.91;4991805;28;20117;-70
2022/10/19 05:12:52;;;;;;;16.92;13.13;;;15.10;84.10;;;13.85;100.00;96829.75;4955185;28;20061;-68
2022/10/19 05:15:18;;;;;;;15.02;13.27;;;15.20;84.10;;;13.86;100.00;96820.81;4985264;28;20098;-67
2022/10/19 05:17:43;;;;;;;17.77;13.00;;;15.20;84.10;;;13.83;100.00;96821.19;4991788;28;20116;-68
2022/10/19 05:20:10;;;;;;;14.60;12.93;;;15.10;84.20;;;13.81;100.00;96827.69;5007518;28;20058;-69
2022/10/19 05:22:37;;;;;;;14.70;13.05;;;15.10;84.20;;;13.80;100.00;96826.84;4975198;28;20120;-69
2022/10/19 05:25:03;;;;;;;15.07;13.48;;;15.10;84.20;;;13.79;100.00;96819.91;5008137;28;20057;-66
2022/10/19 05:27:29;;;;;;;18.75;13.10;;;15.10;84.30;;;13.78;100.00;96820.94;4975386;28;20038;-66
2022/10/19 05:29:55;;;;;;;15.63;13.90;;;15.10;84.30;;;13.77;100.00;96824.59;4987337;28;20032;-69
2022/10/19 05:32:21;;;;;;;15.13;13.40;;;15.10;84.30;;;13.77;100.00;96827.22;5007279;28;20029;-67
2022/10/19 05:34:47;;;;;;;13.85;12.48;;;15.10;84.20;;;13.76;100.00;96834.34;4988015;28;20117;-68
2022/10/19 05:37:12;;;;;;;15.57;12.73;;;15.10;84.30;;;13.76;100.00;96825.59;4981319;28;20452;-66
2022/10/19 05:39:38;;;;;;;18.00;14.20;;;15.10;84.40;;;13.76;100.00;96829.06;5007465;28;20065;-66
2022/10/19 05:42:04;;;;;;;14.60;13.20;;;15.10;84.30;;;13.77;100.00;96827.22;5006528;28;20057;-66
2022/10/19 05:44:30;;;;;;;14.23;12.73;;;15.20;84.40;;;13.76;100.00;96826.41;4975021;28;20061;-68
2022/10/19 05:46:55;;;;;;;16.95;12.77;;;15.10;84.40;;;13.78;100.00;96828.88;4990308;28;20132;-68
2022/10/19 05:49:21;;;;;;;15.38;12.38;;;15.20;84.50;;;13.79;100.00;96830.50;5007332;28;20121;-65
2022/10/19 05:51:47;;;;;;;17.30;13.15;;;15.20;84.60;;;13.82;100.00;96838.06;4986658;28;20030;-66
2022/10/19 05:54:13;;;;;;;16.23;14.52;;;15.30;84.50;;;13.83;100.00;96837.06;4970151;28;20026;-65
2022/10/19 05:56:39;;;;;;;16.58;14.88;;;15.20;84.50;;;13.86;100.00;96836.69;5007499;28;20026;-66
2022/10/19 05:59:06;;;;;;;16.50;13.60;;;15.20;84.30;;;13.87;100.00;96838.31;4991319;28;20042;-64
2022/10/19 06:01:32;;;;;;;16.33;14.73;;;15.30;84.30;;;13.87;100.00;96837.50;4990516;28;20041;-65
2022/10/19 06:03:58;;;;;;;17.10;13.75;;;15.30;84.30;;;13.90;100.00;96851.16;4967294;28;20133;-66
2022/10/19 06:06:24;;;;;;;14.30;12.88;;;15.40;84.30;;;13.93;100.00;96842.81;4971932;28;20145;-65
2022/10/19 06:08:50;;;;;;;14.55;13.13;;;15.40;84.40;;;13.96;100.00;96847.72;4987459;28;20042;-66
2022/10/19 06:11:30;;;;;;;15.77;14.18;;;15.40;84.30;;;14.01;100.00;96849.78;4994529;28;20053;-66
2022/10/19 06:13:58;;;;;;;16.33;14.40;;;15.40;84.40;;;14.03;100.00;96851.25;4985925;28;20030;-62
2022/10/19 06:16:24;;;;;;;15.52;14.02;;;15.50;84.40;;;14.05;100.00;96849.25;4953694;28;20027;-68
2022/10/19 06:18:51;;;;;;;16.20;14.40;;;15.60;84.50;;;14.07;100.00;96852.50;4986952;28;20027;-70
2022/10/19 06:21:20;;;;;;;16.05;14.20;;;15.50;84.50;;;14.10;100.00;96854.78;4983671;28;20053;-66
2022/10/19 06:23:53;;;;;;;15.57;13.77;;;15.60;84.60;;;14.14;100.00;96854.38;4990522;28;20036;-66
2022/10/19 06:26:19;;;;;;;16.27;14.57;;;15.60;84.70;;;14.17;100.00;96854.81;4972245;28;20562;-67
2022/10/19 06:28:45;;;;;;;18.40;16.50;;;15.60;84.60;;;14.23;100.00;96855.84;4990829;28;20030;-64
2022/10/19 06:31:12;;;;;;;21.95;18.65;;;15.70;84.70;;;14.26;100.00;96852.84;5006237;28;20037;-67
2022/10/19 06:33:39;;;;;;;35.45;25.27;;;15.80;84.50;;;14.29;100.00;96857.75;4991407;28;20133;-65
2022/10/19 06:36:09;;;;;;;33.05;24.73;;;15.80;84.60;;;14.32;100.00;96860.00;4985891;28;20085;-66
2022/10/19 06:38:35;;;;;;;31.95;22.85;;;15.80;84.60;;;14.35;100.00;96864.91;5003802;28;20072;-65
2022/10/19 06:41:01;;;;;;;29.42;22.02;;;15.80;84.80;;;14.39;100.00;96868.81;5010096;28;20652;-68
2022/10/19 06:43:27;;;;;;;29.60;21.42;;;15.90;84.80;;;14.43;100.00;96864.78;4993396;28;20038;-65
2022/10/19 06:45:53;;;;;;;32.63;23.73;;;16.00;84.70;;;14.46;100.00;96863.56;4992978;28;20112;-66
2022/10/19 06:48:19;;;;;;;30.90;22.67;;;16.00;84.70;;;14.49;100.00;96866.69;5010312;28;20131;-64
2022/10/19 06:50:45;;;;;;;37.17;22.80;;;16.10;84.70;;;14.52;100.00;96866.28;4974753;28;20494;-68
2022/10/19 06:53:11;;;;;;;31.60;23.00;;;16.10;84.60;;;14.57;100.00;96866.50;4991774;28;20101;-69
2022/10/19 06:55:36;;;;;;;28.85;21.55;;;16.10;84.40;;;14.60;100.00;96865.28;4986772;28;20085;-72
2022/10/19 06:58:02;;;;;;;32.88;22.48;;;16.20;84.20;;;14.65;100.00;96868.97;4992403;28;20065;-72
2022/10/19 07:00:29;;;;;;;27.02;20.60;;;16.20;84.10;;;14.68;100.00;96865.94;4991777;28;20034;-70
2022/10/19 07:02:54;;;;;;;32.08;22.33;;;16.30;84.10;;;14.73;100.00;96875.16;4994552;28;20117;-66
2022/10/19 07:05:20;;;;;;;34.63;22.63;;;16.30;84.00;;;14.77;100.00;96879.88;4977322;28;20493;-67
2022/10/19 07:07:46;;;;;;;31.77;22.15;;;16.40;83.90;;;14.80;100.00;96871.53;5009888;28;20416;-69
2022/10/19 07:10:12;;;;;;;29.05;22.05;;;16.40;83.70;;;14.84;100.00;96870.09;4978215;28;20458;-68
2022/10/19 07:12:38;;;;;;;31.23;21.55;;;16.40;83.50;;;14.87;100.00;96882.94;4969325;28;20026;-64
2022/10/19 07:15:04;;;;;;;32.45;22.45;;;16.50;83.40;;;14.91;100.00;96870.13;4973132;28;20132;-71
2022/10/19 07:17:30;;;;;;;41.08;22.83;;;16.40;83.40;;;14.94;100.00;96861.81;5006586;28;20045;-70
2022/10/19 07:19:55;;;;;;;39.00;21.55;;;16.50;83.30;;;14.98;100.00;96871.00;4993170;28;20038;-67
2022/10/19 07:22:21;;;;;;;36.33;22.00;;;16.60;83.20;;;15.03;100.00;96871.22;4994637;28;20111;-66
2022/10/19 07:24:47;;;;;;;32.88;23.23;;;16.60;83.00;;;15.05;100.00;96866.53;5006655;28;20053;-67
2022/10/19 07:27:13;;;;;;;41.08;32.38;;;16.70;82.70;;;15.08;100.00;96871.44;5008718;28;20084;-67
2022/10/19 07:29:38;;;;;;;31.08;24.35;;;16.70;82.70;;;15.12;100.00;96870.00;5003901;28;20175;-68
2022/10/19 07:32:04;;;;;;;30.95;24.58;;;16.80;82.40;;;15.17;100.00;96877.41;5009574;28;20145;-69
2022/10/19 07:34:30;;;;;;;29.00;20.75;;;16.80;82.20;;;15.20;100.00;96871.69;4959638;28;20038;-68
2022/10/19 07:36:56;;;;;;;33.10;22.13;;;16.80;82.20;;;15.23;100.00;96860.69;4993367;28;20112;-68
2022/10/19 07:39:21;;;;;;;30.05;22.15;;;16.80;82.00;;;15.23;100.00;96872.09;4992988;28;20065;-68
2022/10/19 07:41:47;;;;;;;33.10;22.85;;;16.80;82.20;;;15.24;100.00;96878.22;5006725;28;20058;-69
2022/10/19 07:44:13;;;;;;;32.25;20.73;;;16.80;82.40;;;15.25;100.00;96870.06;4991683;28;20048;-67
2022/10/19 07:46:39;;;;;;;24.45;19.15;;;16.80;82.20;;;15.28;100.00;96869.66;4989028;28;20042;-70
2022/10/19 07:49:08;;;;;;;28.35;19.85;;;16.90;81.90;;;15.31;100.00;96869.28;5008725;28;20057;-64
2022/10/19 07:51:36;;;;;;;29.08;20.08;;;16.90;81.40;;;15.35;100.00;96871.50;4990075;28;20049;-69
2022/10/19 07:54:01;;;;;;;25.27;19.23;;;17.00;81.10;;;15.38;100.00;96863.97;4970947;28;20408;-68
2022/10/19 07:56:27;;;;;;;28.58;20.10;;;17.10;81.30;;;15.43;100.00;96863.41;5008509;28;20108;-67
2022/10/19 07:58:54;;;;;;;26.83;19.30;;;17.20;80.50;;;15.50;100.00;96865.03;4973635;28;20018;-67
2022/10/19 08:01:26;;;;;;;24.30;18.40;;;17.30;80.20;;;15.58;100.00;96867.53;4992645;28;20085;-67
2022/10/19 08:03:53;;;;;;;24.35;18.38;;;17.50;79.70;;;15.71;100.00;96861.44;4978049;28;20088;-67
2022/10/19 08:06:19;;;;;;;23.13;17.90;;;17.60;79.40;;;15.80;100.00;96864.69;4977484;28;20401;-67
2022/10/19 08:08:45;;;;;;;24.30;18.55;;;17.70;78.70;;;15.89;100.00;96868.81;5009145;28;20034;-66
2022/10/19 08:11:16;;;;;;;24.92;17.90;;;17.80;78.50;;;15.96;100.00;96876.75;4992785;28;20037;-67
2022/10/19 08:13:41;;;;;;;27.17;18.00;;;17.80;78.60;;;16.02;100.00;96882.06;4992464;28;20062;-67
2022/10/19 08:16:24;;;;;;;25.25;18.25;;;17.80;78.30;;;16.09;100.00;96877.59;4992768;28;20465;-67
2022/10/19 08:18:51;;;;;;;30.10;20.38;;;17.90;78.70;;;16.12;100.00;96887.78;4961908;28;20036;-68
2022/10/19 08:21:17;;;;;;;34.63;27.00;;;18.00;78.60;;;16.18;100.00;96891.47;5004583;28;20026;-67
2022/10/19 08:23:42;;;;;;;27.17;19.73;;;17.90;78.60;;;16.23;100.00;96895.13;4973015;28;20597;-71
2022/10/19 08:26:08;;;;;;;24.85;18.40;;;18.00;78.00;;;16.28;100.00;96891.03;4990083;28;20532;-65
2022/10/19 08:28:34;;;;;;;23.60;18.13;;;18.00;78.40;;;16.32;100.00;96895.75;4988763;28;20636;-69
2022/10/19 08:31:14;;;;;;;22.15;17.88;;;18.10;77.80;;;16.40;100.00;96894.72;4986238;28;20585;-68
2022/10/19 08:33:40;;;;;;;19.92;15.90;;;18.20;77.70;;;16.43;100.00;96892.47;4985733;28;20410;-68
2022/10/19 08:36:07;;;;;;;21.70;17.58;;;18.20;77.20;;;16.47;100.00;96891.03;4985920;28;20128;-67
2022/10/19 08:38:34;;;;;;;19.92;15.95;;;18.20;76.70;;;16.51;100.00;96889.56;4987977;28;20030;-67
2022/10/19 08:41:31;;;;;;;20.95;17.00;;;18.20;77.00;;;16.57;100.00;96887.13;4968385;28;20502;-70
2022/10/19 08:44:21;;;;;;;21.08;17.23;;;18.30;77.30;;;16.59;100.00;96882.44;5009646;28;20050;-67
2022/10/19 08:46:50;;;;;;;18.77;15.02;;;18.30;76.90;;;16.60;100.00;96881.41;5002291;28;20386;-69
2022/10/19 08:49:19;;;;;;;21.45;16.50;;;18.40;76.80;;;16.65;100.00;96876.28;5003982;28;20457;-66
2022/10/19 08:51:49;;;;;;;17.88;15.85;;;18.50;76.00;;;16.72;100.00;96880.56;4989436;28;20038;-65
2022/10/19 08:54:16;;;;;;;21.90;16.27;;;18.70;75.40;;;16.83;100.00;96871.97;4972297;28;20035;-67
2022/10/19 08:56:53;;;;;;;20.60;15.25;;;19.00;75.00;;;16.99;100.00;96877.88;4984492;28;20034;-66
2022/10/19 08:59:45;;;;;;;16.08;13.60;;;19.20;73.50;;;17.14;100.00;96871.25;4984747;28;20034;-65
2022/10/19 09:03:06;;;;;;;15.98;14.13;;;19.40;72.70;;;17.31;100.00;96876.09;4989959;28;20072;-66
2022/10/19 09:05:45;;;;;;;;;;;19.60;72.30;;;17.43;100.00;96863.75;4942071;28;20045;-65
2022/10/19 09:08:11;;;;;;;15.95;12.73;;;19.60;72.50;;;17.52;100.00;96865.13;4989214;28;19957;-67
2022/10/19 09:10:39;;;;;;;15.40;13.05;;;19.60;72.80;;;17.59;100.00;96870.41;4988457;28;20049;-65
2022/10/19 09:13:19;;;;;;;14.73;11.45;;;19.60;72.30;;;17.64;100.00;96871.38;4986827;28;20070;-66
2022/10/19 09:15:47;;;;;;;14.00;11.97;;;19.50;72.80;;;17.68;100.00;96875.31;4989562;28;20033;-67
2022/10/19 09:18:26;;;;;;;13.63;12.05;;;19.50;72.60;;;17.68;100.00;96877.97;4951655;28;20030;-61
2022/10/19 09:20:59;;;;;;;24.23;20.45;;;19.40;72.80;;;17.66;100.00;96874.66;4971635;28;20045;-66
2022/10/19 09:23:48;;;;;;;14.50;13.00;;;19.40;72.70;;;17.67;100.00;96876.34;4989784;28;20127;-68
2022/10/19 09:26:19;;;;;;;12.90;11.60;;;19.50;72.40;;;17.66;100.00;96876.50;5007761;28;20041;-67
2022/10/19 09:29:00;;;;;;;13.63;11.85;;;19.50;72.30;;;17.66;100.00;96874.66;4986228;28;20053;-70
2022/10/19 09:31:35;;;;;;;13.18;11.40;;;19.50;72.00;;;17.67;100.00;96876.34;4985449;28;20034;-61
2022/10/19 09:34:07;;;;;;;12.02;10.82;;;19.50;72.10;;;17.72;100.00;96871.19;4953083;28;20132;-68
2022/10/19 09:36:44;;;;;;;12.02;10.25;;;19.60;72.20;;;17.79;100.00;96876.44;5008624;28;20112;-68
2022/10/19 09:39:13;;;;;;;12.45;11.05;;;19.60;72.30;;;17.83;100.00;96877.63;4991785;28;20049;-69
2022/10/19 09:41:53;;;;;;;12.02;10.82;;;19.60;72.10;;;17.89;100.00;96868.81;4974919;28;20029;-69
2022/10/19 09:44:19;;;;;;;11.63;10.30;;;19.70;71.60;;;17.96;100.00;96874.06;4971848;28;20039;-66
2022/10/19 09:47:02;;;;;;;12.43;10.13;;;19.90;71.60;;;18.03;100.00;96877.50;4975626;28;20049;-68
2022/10/19 09:49:42;;;;;;;12.65;10.60;;;20.00;70.70;;;18.11;100.00;96882.56;5006238;28;20037;-65
2022/10/19 09:52:38;;;;;;;11.20;9.60;;;20.10;70.60;;;18.22;100.00;96887.19;4982412;28;20042;-62
2022/10/19 09:55:20;;;;;;;11.38;10.18;;;20.20;70.10;;;18.29;100.00;96879.94;4962853;28;20042;-67
2022/10/19 09:57:56;;;;;;;11.88;10.05;;;20.30;70.00;;;18.36;100.00;96880.72;4996091;28;20034;-64
2022/10/19 10:00:37;;;;;;;10.30;9.20;;;20.40;69.20;;;18.47;100.00;96875.69;4954303;28;20478;-65
2022/10/19 10:03:04;;;;;;;12.02;9.27;;;20.60;68.50;;;18.56;100.00;96879.72;5002413;28;20524;-62
2022/10/19 10:05:36;;;;;;;9.98;8.82;;;20.70;68.30;;;18.61;100.00;96874.53;5001023;28;20085;-63
2022/10/19 10:08:03;;;;;;;9.27;8.35;;;20.70;68.00;;;18.66;100.00;96880.03;4980788;28;20470;-69
2022/10/19 10:10:35;;;;;;;8.93;7.93;;;20.60;67.30;;;18.69;100.00;96874.25;4982999;28;20030;-69
2022/10/19 10:13:01;;;;;;;9.88;8.32;;;20.60;66.90;;;18.73;100.00;96872.78;4963861;28;20095;-71
2022/10/19 10:15:34;;;;;;;8.27;6.90;;;20.60;67.40;;;18.75;100.00;96873.38;4987250;28;20540;-70
2022/10/19 10:18:00;;;;;;;8.27;7.43;;;20.70;67.10;;;18.77;100.00;96871.31;4964658;28;20061;-72